createdAt,value
2022-11-24T00:00:48.057Z,19.05
2022-11-24T00:03:18.787Z,18.80
2022-11-24T00:05:49.680Z,18.33
2022-11-24T00:08:20.208Z,15.85
2022-11-24T00:10:50.943Z,17.95
2022-11-24T00:13:21.399Z,24.75
2022-11-24T00:15:52.357Z,18.70
2022-11-24T00:18:23.063Z,15.20
2022-11-24T00:20:55.111Z,13.90
2022-11-24T00:23:28.370Z,16.15
2022-11-24T00:26:06.413Z,15.32
2022-11-24T00:28:37.440Z,13.80
2022-11-24T00:31:19.131Z,15.00
2022-11-24T00:33:51.408Z,14.50
2022-11-24T00:36:23.395Z,13.23
2022-11-24T00:39:02.037Z,11.95
2022-11-24T00:41:33.101Z,12.30
2022-11-24T00:44:04.265Z,13.93
2022-11-24T00:46:38.697Z,13.77
2022-11-24T00:49:09.956Z,16.20
2022-11-24T00:51:40.653Z,13.93
2022-11-24T00:54:12.005Z,12.55
2022-11-24T00:56:42.512Z,12.27
2022-11-24T00:59:13.349Z,9.00
2022-11-24T01:01:44.046Z,10.38
2022-11-24T01:04:14.581Z,10.48
2022-11-24T01:06:45.445Z,12.00
2022-11-24T01:09:15.985Z,10.82
2022-11-24T01:12:02.913Z,10.68
2022-11-24T01:14:34.167Z,5.00
2022-11-24T01:17:06.111Z,6.43
2022-11-24T01:19:36.861Z,6.00
2022-11-24T01:22:07.701Z,5.10
2022-11-24T01:24:38.500Z,5.60
2022-11-24T01:27:08.849Z,5.90
2022-11-24T01:29:40.091Z,5.32
2022-11-24T01:32:10.293Z,4.75
2022-11-24T01:34:40.796Z,5.32
2022-11-24T01:37:11.508Z,7.47
2022-11-24T01:39:42.133Z,5.47
2022-11-24T01:42:12.961Z,4.32
2022-11-24T01:44:43.493Z,4.13
2022-11-24T01:47:32.865Z,4.05
2022-11-24T01:50:04.865Z,4.70
2022-11-24T01:52:40.387Z,4.82
2022-11-24T01:55:16.328Z,5.57
2022-11-24T01:57:54.158Z,6.30
2022-11-24T02:00:24.848Z,7.05
2022-11-24T02:02:55.410Z,5.60
2022-11-24T02:05:32.589Z,5.57
2022-11-24T02:08:03.820Z,6.68
2022-11-24T02:10:35.422Z,4.82
2022-11-24T02:13:06.221Z,5.10
2022-11-24T02:15:37.912Z,5.55
2022-11-24T02:18:08.422Z,5.28
2022-11-24T02:20:39.803Z,5.97
2022-11-24T02:23:26.718Z,7.00
2022-11-24T02:26:16.857Z,4.75
2022-11-24T02:28:48.441Z,5.35
2022-11-24T02:31:18.918Z,5.35
2022-11-24T02:33:51.895Z,6.10
2022-11-24T02:36:22.339Z,4.95
2022-11-24T02:38:53.088Z,4.30
2022-11-24T02:41:24.660Z,4.25
2022-11-24T02:44:01.532Z,4.50
2022-11-24T02:46:32.441Z,2.83
2022-11-24T02:49:03.360Z,4.10
2022-11-24T02:51:35.470Z,4.43
2022-11-24T02:54:05.769Z,3.40
2022-11-24T02:56:36.059Z,5.10
2022-11-24T02:59:06.690Z,5.90
2022-11-24T03:01:37.016Z,8.30
2022-11-24T03:04:08.897Z,5.72
2022-11-24T03:06:39.724Z,5.30
2022-11-24T03:09:11.820Z,4.97
2022-11-24T03:11:43.255Z,7.38
2022-11-24T03:14:14.066Z,9.50
2022-11-24T03:16:44.854Z,8.93
2022-11-24T03:19:15.679Z,8.18
2022-11-24T03:21:46.331Z,9.63
2022-11-24T03:24:17.168Z,9.48
2022-11-24T03:26:49.755Z,11.07
2022-11-24T03:29:20.056Z,8.43
2022-11-24T03:31:50.731Z,13.25
2022-11-24T03:34:21.350Z,7.63
2022-11-24T03:36:52.509Z,6.85
2022-11-24T03:39:24.459Z,7.68
2022-11-24T03:41:55.308Z,6.43
2022-11-24T03:44:26.256Z,6.55
2022-11-24T03:46:56.647Z,6.07
2022-11-24T03:49:27.729Z,8.25
2022-11-24T03:52:00.645Z,8.27
2022-11-24T03:54:36.644Z,6.47
2022-11-24T03:57:07.203Z,6.50
2022-11-24T03:59:37.501Z,7.03
2022-11-24T04:02:08.793Z,9.85
2022-11-24T04:04:39.540Z,7.50
2022-11-24T04:07:10.607Z,7.90
2022-11-24T04:09:41.676Z,7.57
2022-11-24T04:12:30.957Z,8.82
2022-11-24T04:15:01.168Z,8.57
2022-11-24T04:17:34.052Z,7.65
2022-11-24T04:20:04.683Z,7.00
2022-11-24T04:22:37.734Z,8.30
2022-11-24T04:25:09.603Z,6.55
2022-11-24T04:27:40.216Z,7.70
2022-11-24T04:30:11.776Z,6.97
2022-11-24T04:32:42.643Z,7.07
2022-11-24T04:35:13.865Z,7.13
2022-11-24T04:37:44.481Z,6.82
2022-11-24T04:40:15.848Z,7.70
2022-11-24T04:42:53.123Z,9.05
2022-11-24T04:45:24.546Z,8.82
2022-11-24T04:47:55.131Z,8.65
2022-11-24T04:50:26.199Z,7.68
2022-11-24T04:52:56.569Z,8.23
2022-11-24T04:55:27.226Z,8.73
2022-11-24T04:57:59.159Z,7.82
2022-11-24T05:00:29.604Z,7.50
2022-11-24T05:03:01.324Z,8.63
2022-11-24T05:05:31.903Z,7.85
2022-11-24T05:08:02.933Z,11.95
2022-11-24T05:10:36.634Z,10.20
2022-11-24T05:13:11.532Z,8.63
2022-11-24T05:15:43.032Z,7.15
2022-11-24T05:18:16.243Z,7.40
2022-11-24T05:20:46.977Z,7.18
2022-11-24T05:23:17.858Z,7.45
2022-11-24T05:25:52.080Z,7.55
2022-11-24T05:28:23.318Z,7.35
2022-11-24T05:30:54.208Z,7.75
2022-11-24T05:33:25.123Z,8.25
2022-11-24T05:35:56.157Z,7.85
2022-11-24T05:38:27.627Z,9.48
2022-11-24T05:41:05.936Z,6.72
2022-11-24T05:43:39.891Z,7.85
2022-11-24T05:46:10.457Z,7.63
2022-11-24T05:48:41.049Z,7.95
2022-11-24T05:51:12.063Z,8.57
2022-11-24T05:53:42.597Z,8.93
2022-11-24T05:56:12.987Z,8.75
2022-11-24T05:58:44.672Z,8.23
2022-11-24T06:01:15.556Z,8.65
2022-11-24T06:03:46.593Z,9.15
2022-11-24T06:06:17.173Z,8.48
2022-11-24T06:08:48.103Z,9.18
2022-11-24T06:11:19.031Z,8.70
2022-11-24T06:13:49.943Z,9.90
2022-11-24T06:16:22.432Z,9.32
2022-11-24T06:18:52.778Z,7.90
2022-11-24T06:21:23.321Z,7.82
2022-11-24T06:23:54.380Z,8.50
2022-11-24T06:26:25.106Z,7.05
2022-11-24T06:28:55.718Z,7.72
2022-11-24T06:31:27.393Z,6.32
2022-11-24T06:33:58.649Z,6.38
2022-11-24T06:36:29.638Z,6.63
2022-11-24T06:39:03.232Z,6.72
2022-11-24T06:41:34.355Z,6.22
2022-11-24T06:44:05.973Z,6.63
2022-11-24T06:46:37.907Z,6.20
2022-11-24T06:49:08.479Z,6.47
2022-11-24T06:51:39.413Z,6.40
2022-11-24T06:54:16.674Z,5.90
2022-11-24T06:56:47.308Z,6.57
2022-11-24T06:59:21.103Z,7.15
2022-11-24T07:01:51.774Z,6.07
2022-11-24T07:04:22.486Z,6.57
2022-11-24T07:06:52.971Z,7.05
2022-11-24T07:09:23.831Z,7.10
2022-11-24T07:11:57.615Z,6.25
2022-11-24T07:14:27.905Z,7.40
2022-11-24T07:16:58.781Z,6.97
2022-11-24T07:19:29.507Z,5.95
2022-11-24T07:22:00.325Z,6.20
2022-11-24T07:24:31.527Z,6.88
2022-11-24T07:27:02.242Z,7.38
2022-11-24T07:29:33.110Z,7.45
2022-11-24T07:32:05.654Z,7.65
2022-11-24T07:34:38.629Z,8.80
2022-11-24T07:37:10.123Z,8.50
2022-11-24T07:39:40.942Z,9.00
2022-11-24T07:42:12.474Z,11.20
2022-11-24T07:44:43.346Z,7.70
2022-11-24T07:47:14.040Z,8.98
2022-11-24T07:49:44.797Z,8.45
2022-11-24T07:52:15.444Z,8.57
2022-11-24T07:54:46.525Z,7.32
2022-11-24T07:57:17.285Z,7.43
2022-11-24T07:59:48.128Z,7.43
2022-11-24T08:02:18.700Z,7.65
2022-11-24T08:04:49.401Z,8.75
2022-11-24T08:07:20.348Z,8.18
2022-11-24T08:09:51.546Z,9.85
2022-11-24T08:12:24.573Z,8.10
2022-11-24T08:14:55.456Z,7.55
2022-11-24T08:17:26.633Z,4.38
2022-11-24T08:19:57.774Z,3.97
2022-11-24T08:22:28.056Z,3.20
2022-11-24T08:24:58.656Z,3.67
2022-11-24T08:27:29.282Z,5.10
2022-11-24T08:30:00.589Z,4.20
2022-11-24T08:32:32.326Z,3.40
2022-11-24T08:35:13.734Z,3.50
2022-11-24T08:37:45.124Z,4.30
2022-11-24T08:40:16.263Z,4.72
2022-11-24T08:42:47.130Z,4.35
2022-11-24T08:45:21.209Z,3.00
2022-11-24T08:47:58.510Z,2.95
2022-11-24T08:50:29.372Z,3.70
2022-11-24T08:52:59.946Z,4.60
2022-11-24T08:55:31.458Z,3.10
2022-11-24T08:58:02.039Z,2.90
2022-11-24T09:00:32.321Z,4.80
2022-11-24T09:03:03.987Z,3.60
2022-11-24T09:08:25.103Z,3.85
2022-11-24T09:10:56.115Z,4.30
2022-11-24T09:13:26.661Z,3.50
2022-11-24T09:16:05.496Z,4.07
2022-11-24T09:18:36.619Z,4.10
2022-11-24T09:21:19.672Z,3.50
2022-11-24T09:23:52.214Z,3.38
2022-11-24T09:26:25.718Z,19.48
2022-11-24T09:28:57.751Z,3.95
2022-11-24T09:31:31.599Z,3.47
2022-11-24T09:34:04.187Z,6.25
2022-11-24T09:36:35.330Z,3.97
2022-11-24T09:39:06.827Z,4.25
2022-11-24T09:41:58.520Z,6.13
2022-11-24T09:44:47.084Z,4.93
2022-11-24T09:47:35.790Z,5.35
2022-11-24T09:50:23.383Z,5.18
2022-11-24T09:53:13.289Z,4.15
2022-11-24T09:55:58.732Z,4.80
2022-11-24T09:58:46.311Z,3.55
2022-11-24T10:01:42.076Z,15.98
2022-11-24T10:04:23.951Z,5.88
2022-11-24T10:07:13.236Z,4.80
2022-11-24T10:09:50.373Z,4.32
2022-11-24T10:12:51.259Z,5.40
2022-11-24T10:15:35.869Z,4.45
2022-11-24T10:18:31.271Z,6.35
2022-11-24T10:21:38.920Z,4.30
2022-11-24T10:24:41.284Z,6.25
2022-11-24T10:27:22.987Z,5.35
2022-11-24T10:29:54.483Z,6.63
2022-11-24T10:32:29.596Z,6.30
2022-11-24T10:35:18.203Z,7.35
2022-11-24T10:38:23.798Z,10.35
2022-11-24T10:41:11.894Z,10.50
2022-11-24T10:43:43.221Z,11.13
2022-11-24T10:46:21.063Z,9.70
2022-11-24T10:49:03.954Z,21.58
2022-11-24T10:51:46.948Z,10.18
2022-11-24T10:54:20.504Z,10.70
2022-11-24T10:56:54.521Z,9.93
2022-11-24T10:59:40.329Z,9.15
2022-11-24T11:02:43.100Z,10.40
2022-11-24T11:05:29.571Z,12.45
2022-11-24T11:08:23.020Z,11.18
2022-11-24T11:11:31.418Z,9.30
2022-11-24T11:14:04.939Z,13.27
2022-11-24T11:16:55.585Z,14.02
2022-11-24T11:19:50.883Z,12.73
2022-11-24T11:22:29.076Z,14.35
2022-11-24T11:25:24.246Z,14.38
2022-11-24T11:28:23.665Z,13.73
2022-11-24T11:34:12.495Z,12.02
2022-11-24T11:36:51.094Z,10.95
2022-11-24T11:39:36.837Z,15.60
2022-11-24T11:42:53.634Z,14.88
2022-11-24T11:45:42.514Z,26.52
2022-11-24T11:48:16.257Z,16.02
2022-11-24T11:51:21.859Z,15.73
2022-11-24T11:53:47.470Z,15.77
2022-11-24T11:56:18.055Z,16.63
2022-11-24T11:59:13.747Z,16.80
2022-11-24T12:02:06.455Z,16.40
2022-11-24T12:04:51.817Z,16.98
2022-11-24T12:07:48.985Z,17.05
2022-11-24T12:10:33.525Z,16.70
2022-11-24T12:13:36.891Z,54.17
2022-11-24T12:16:39.881Z,18.95
2022-11-24T12:19:16.211Z,22.33
2022-11-24T12:22:02.347Z,21.48
2022-11-24T12:24:52.845Z,17.45
2022-11-24T12:27:33.337Z,17.00
2022-11-24T12:30:15.134Z,15.40
2022-11-24T12:33:26.945Z,13.52
2022-11-24T12:36:15.547Z,11.38
2022-11-24T12:38:54.808Z,9.77
2022-11-24T12:41:50.650Z,10.88
2022-11-24T12:44:27.628Z,10.80
2022-11-24T12:47:14.958Z,9.93
2022-11-24T12:50:09.303Z,11.15
2022-11-24T12:52:52.878Z,11.15
2022-11-24T12:55:26.731Z,10.90
2022-11-24T12:58:12.702Z,11.93
2022-11-24T13:01:02.534Z,9.40
2022-11-24T13:03:53.263Z,8.55
2022-11-24T13:06:32.037Z,9.00
2022-11-24T13:09:13.803Z,9.13
2022-11-24T13:11:50.904Z,7.85
2022-11-24T13:14:34.285Z,9.18
2022-11-24T13:17:39.703Z,9.40
2022-11-24T13:20:21.014Z,8.05
2022-11-24T13:22:57.483Z,7.20
2022-11-24T13:25:41.634Z,7.10
2022-11-24T13:29:01.753Z,6.72
2022-11-24T13:31:36.953Z,6.97
2022-11-24T13:34:56.002Z,8.27
2022-11-24T13:37:33.974Z,7.55
2022-11-24T13:40:15.545Z,6.97
2022-11-24T13:43:06.988Z,6.80
2022-11-24T13:45:40.704Z,7.63
2022-11-24T13:48:21.157Z,8.40
2022-11-24T13:50:55.733Z,9.45
2022-11-24T13:53:47.130Z,9.02
2022-11-24T13:56:17.515Z,9.55
2022-11-24T13:58:51.932Z,8.82
2022-11-24T14:01:30.506Z,10.07
2022-11-24T14:04:32.640Z,9.18
2022-11-24T14:07:09.717Z,8.75
2022-11-24T14:09:46.469Z,9.27
2022-11-24T14:12:19.998Z,8.75
2022-11-24T14:14:52.685Z,8.45
2022-11-24T14:17:24.704Z,8.27
2022-11-24T14:19:57.352Z,8.98
2022-11-24T14:22:36.415Z,7.93
2022-11-24T14:25:09.683Z,8.57
2022-11-24T14:27:41.027Z,8.13
2022-11-24T14:30:11.343Z,9.20
2022-11-24T14:32:43.235Z,7.30
2022-11-24T14:35:29.709Z,10.23
2022-11-24T14:38:04.802Z,10.60
2022-11-24T14:40:43.633Z,10.32
2022-11-24T14:43:30.060Z,9.07
2022-11-24T14:46:03.903Z,8.63
2022-11-24T14:48:39.155Z,9.27
2022-11-24T14:51:13.220Z,8.60
2022-11-24T14:53:48.255Z,9.80
2022-11-24T14:56:29.666Z,9.68
2022-11-24T14:59:00.805Z,8.95
2022-11-24T15:01:34.450Z,8.48
2022-11-24T15:04:38.811Z,8.48
2022-11-24T15:07:27.757Z,7.93
2022-11-24T15:10:00.502Z,8.38
2022-11-24T15:12:37.883Z,8.40
2022-11-24T15:15:33.067Z,8.30
2022-11-24T15:18:04.809Z,8.57
2022-11-24T15:20:38.844Z,7.78
2022-11-24T15:23:25.839Z,7.97
2022-11-24T15:26:06.004Z,7.07
2022-11-24T15:28:36.549Z,7.22
2022-11-24T15:31:11.099Z,7.43
2022-11-24T15:33:43.445Z,7.28
2022-11-24T15:36:15.844Z,7.65
2022-11-24T15:38:46.998Z,7.05
2022-11-24T15:41:22.297Z,7.82
2022-11-24T15:43:59.807Z,7.47
2022-11-24T15:46:40.629Z,6.80
2022-11-24T15:49:11.554Z,6.75
2022-11-24T15:51:45.172Z,7.38
2022-11-24T15:54:19.522Z,7.13
2022-11-24T15:56:49.853Z,7.38
2022-11-24T15:59:21.260Z,7.25
2022-11-24T16:01:52.877Z,7.57
2022-11-24T16:04:23.988Z,6.95
2022-11-24T16:06:54.902Z,7.45
2022-11-24T16:09:25.435Z,7.18
2022-11-24T16:11:55.694Z,6.32
2022-11-24T16:14:28.646Z,7.00
2022-11-24T16:16:59.119Z,6.88
2022-11-24T16:19:30.179Z,6.40
2022-11-24T16:22:00.412Z,6.30
2022-11-24T16:24:30.814Z,6.15
2022-11-24T16:27:01.358Z,6.88
2022-11-24T16:29:36.875Z,6.10
2022-11-24T16:32:20.096Z,6.93
2022-11-24T16:34:50.787Z,7.53
2022-11-24T16:37:24.477Z,7.97
2022-11-24T16:39:55.279Z,8.68
2022-11-24T16:42:26.030Z,8.68
2022-11-24T16:44:56.858Z,7.57
2022-11-24T16:47:27.123Z,7.20
2022-11-24T16:49:57.692Z,6.80
2022-11-24T16:52:28.452Z,8.07
2022-11-24T16:54:59.152Z,7.65
2022-11-24T16:57:30.029Z,8.40
2022-11-24T17:00:01.057Z,7.78
2022-11-24T17:02:31.967Z,9.13
2022-11-24T17:05:03.304Z,8.93
2022-11-24T17:07:34.487Z,10.60
2022-11-24T17:10:05.632Z,10.63
2022-11-24T17:12:37.734Z,12.10
2022-11-24T17:18:23.530Z,13.02
2022-11-24T17:20:51.530Z,13.35
2022-11-24T17:23:22.516Z,13.18
2022-11-24T17:25:53.066Z,12.55
2022-11-24T17:28:23.972Z,12.48
2022-11-24T17:30:54.948Z,12.30
2022-11-24T17:33:25.809Z,11.50
2022-11-24T17:35:56.252Z,10.23
2022-11-24T17:38:26.698Z,11.70
2022-11-24T17:40:58.545Z,11.68
2022-11-24T17:43:31.765Z,12.30
2022-11-24T17:46:03.620Z,13.35
2022-11-24T17:48:34.532Z,13.98
2022-11-24T17:51:08.758Z,13.70
2022-11-24T17:53:40.950Z,13.85
2022-11-24T17:56:19.322Z,13.20
2022-11-24T17:58:50.353Z,13.50
2022-11-24T18:01:21.043Z,12.55
2022-11-24T18:03:53.641Z,13.70
2022-11-24T18:06:26.211Z,13.95
2022-11-24T18:08:59.183Z,13.80
2022-11-24T18:11:32.178Z,12.80
2022-11-24T18:14:04.999Z,14.93
2022-11-24T18:16:36.483Z,13.77
2022-11-24T18:19:11.505Z,13.95
2022-11-24T18:21:45.678Z,14.40
2022-11-24T18:24:19.780Z,14.93
2022-11-24T18:26:54.237Z,16.15
2022-11-24T18:29:24.781Z,15.40
2022-11-24T18:31:55.259Z,16.58
2022-11-24T18:34:27.080Z,17.92
2022-11-24T18:36:58.485Z,18.40
2022-11-24T18:39:30.458Z,18.55
2022-11-24T18:42:00.913Z,16.50
2022-11-24T18:44:31.846Z,16.35
2022-11-24T18:47:02.877Z,15.43
2022-11-24T18:49:33.293Z,15.48
2022-11-24T18:52:03.909Z,15.70
2022-11-24T18:54:35.177Z,17.63
2022-11-24T18:57:06.218Z,18.30
2022-11-24T18:59:37.759Z,19.08
2022-11-24T19:02:08.184Z,19.05
2022-11-24T19:04:39.525Z,21.17
2022-11-24T19:07:10.177Z,19.30
2022-11-24T19:09:40.759Z,20.67
2022-11-24T19:12:11.742Z,21.95
2022-11-24T19:14:42.583Z,23.05
2022-11-24T19:17:13.394Z,21.17
2022-11-24T19:19:44.157Z,18.75
2022-11-24T19:22:16.739Z,18.40
2022-11-24T19:24:47.981Z,18.33
2022-11-24T19:27:19.586Z,18.00
2022-11-24T19:29:50.023Z,19.38
2022-11-24T19:32:20.486Z,18.95
2022-11-24T19:34:50.879Z,17.02
2022-11-24T19:37:22.427Z,17.20
2022-11-24T19:39:53.349Z,15.05
2022-11-24T19:42:26.789Z,16.92
2022-11-24T19:44:57.895Z,20.30
2022-11-24T19:47:29.593Z,19.40
2022-11-24T19:49:59.909Z,22.13
2022-11-24T19:52:31.100Z,21.67
2022-11-24T19:55:01.661Z,23.85
2022-11-24T19:57:33.605Z,22.92
2022-11-24T20:00:04.569Z,20.02
2022-11-24T20:02:35.523Z,20.33
2022-11-24T20:05:09.063Z,19.95
2022-11-24T20:07:42.271Z,18.70
2022-11-24T20:10:12.949Z,17.83
2022-11-24T20:12:44.090Z,17.60
2022-11-24T20:15:15.293Z,15.55
2022-11-24T20:17:46.009Z,16.05
2022-11-24T20:20:24.196Z,15.82
2022-11-24T20:22:54.840Z,16.85
2022-11-24T20:25:28.670Z,15.13
2022-11-24T20:27:58.889Z,15.82
2022-11-24T20:30:29.768Z,15.20
2022-11-24T20:33:01.099Z,14.35
2022-11-24T20:35:31.644Z,14.00
2022-11-24T20:38:02.102Z,14.27
2022-11-24T20:40:32.831Z,14.30
2022-11-24T20:43:03.430Z,16.38
2022-11-24T20:45:34.269Z,14.77
2022-11-24T20:48:04.938Z,16.50
2022-11-24T20:50:39.030Z,14.15
2022-11-24T20:53:10.219Z,13.20
2022-11-24T20:55:40.465Z,14.18
2022-11-24T20:58:20.236Z,13.77
2022-11-24T21:00:51.321Z,13.98
2022-11-24T21:03:21.812Z,13.27
2022-11-24T21:05:56.875Z,12.90
2022-11-24T21:08:30.630Z,12.30
2022-11-24T21:11:01.887Z,12.38
2022-11-24T21:13:36.623Z,12.40
2022-11-24T21:16:15.967Z,13.00
2022-11-24T21:18:48.480Z,12.20
2022-11-24T21:21:20.712Z,11.65
2022-11-24T21:23:52.231Z,11.13
2022-11-24T21:26:23.196Z,11.77
2022-11-24T21:28:53.840Z,12.25
2022-11-24T21:31:27.530Z,12.18
2022-11-24T21:33:59.851Z,11.90
2022-11-24T21:36:30.454Z,12.55
2022-11-24T21:39:01.390Z,12.55
2022-11-24T21:41:34.238Z,11.90
2022-11-24T21:44:04.854Z,12.70
2022-11-24T21:46:44.130Z,14.30
2022-11-24T21:49:37.128Z,16.20
2022-11-24T21:52:07.402Z,16.70
2022-11-24T21:54:37.786Z,18.90
2022-11-24T21:57:08.170Z,18.58
2022-11-24T21:59:41.892Z,18.85
2022-11-24T22:02:13.962Z,19.60
2022-11-24T22:04:44.697Z,20.63
2022-11-24T22:07:15.254Z,21.02
2022-11-24T22:09:47.706Z,20.80
2022-11-24T22:12:18.341Z,19.73
2022-11-24T22:14:51.529Z,18.98
2022-11-24T22:17:24.246Z,21.80
2022-11-24T22:19:54.775Z,25.73
2022-11-24T22:22:25.691Z,22.38
2022-11-24T22:24:59.716Z,22.17
2022-11-24T22:27:31.086Z,21.35
2022-11-24T22:30:01.741Z,20.27
2022-11-24T22:32:31.925Z,21.25
2022-11-24T22:35:03.722Z,21.52
2022-11-24T22:37:34.563Z,20.90
2022-11-24T22:40:06.710Z,19.20
2022-11-24T22:42:38.202Z,17.13
2022-11-24T22:45:09.304Z,16.63
2022-11-24T22:47:39.864Z,17.05
2022-11-24T22:50:11.069Z,22.85
2022-11-24T22:52:41.826Z,20.27
2022-11-24T22:55:12.503Z,17.52
2022-11-24T22:57:47.439Z,19.75
2022-11-24T23:00:19.492Z,20.40
2022-11-24T23:02:49.997Z,20.48
2022-11-24T23:05:21.598Z,21.73
2022-11-24T23:07:52.852Z,20.83
2022-11-24T23:10:23.295Z,23.15
2022-11-24T23:12:55.541Z,21.33
2022-11-24T23:15:26.111Z,20.98
2022-11-24T23:17:57.456Z,22.70
2022-11-24T23:20:28.290Z,20.85
2022-11-24T23:22:59.893Z,22.67
2022-11-24T23:25:31.662Z,19.42
2022-11-24T23:28:02.768Z,21.10
2022-11-24T23:30:33.315Z,24.00
2022-11-24T23:33:03.847Z,24.85
2022-11-24T23:35:37.323Z,26.60
2022-11-24T23:38:08.210Z,28.55
2022-11-24T23:40:38.896Z,26.45
2022-11-24T23:43:09.675Z,24.38
2022-11-24T23:45:39.944Z,20.98
2022-11-24T23:48:10.505Z,20.45
2022-11-24T23:50:41.570Z,16.58
2022-11-24T23:53:11.797Z,14.48
2022-11-24T23:55:43.170Z,13.20
2022-11-24T23:58:13.972Z,12.80
